Flight Track Log - Related Links

Times and Time Zones

All times are in EDT time to prevent confusion due to time zone crossing. See the EJA396 flight status page for this flight to view local times or setup timezone preferences in your user account.

Time Position Orientation Groundspeed Altitude Reporting Facility
EDT Latitude Longitude Course Direction KTS MPH feet Rate Location/Type
Thu 08:16:09 AM 43.1064 -77.6903 203° Southwest 149 171 1,600  Level Cleveland Center
Thu 08:16:34 AM 43.0892 -77.7003 203° Southwest 183 211 3,000 4,345 Climbing Cleveland Center
Thu 08:17:36 AM 43.0550 -77.6550 136° Southeast 204 235 7,900 4,065 Climbing Cleveland Center
Thu 08:18:38 AM 43.0244 -77.5664 115° Southeast 257 296 11,400 3,435 Climbing Cleveland Center
Thu 08:19:40 AM 42.9856 -77.4558 116° Southeast 312 359 15,000 3,629 Climbing Cleveland Center
Thu 08:20:42 AM 42.9447 -77.3403 116° Southeast 332 382 18,900 2,903 Climbing Cleveland Center
Thu 08:21:44 AM 42.8947 -77.1969 115° Southeast 345 397 21,000 1,355 Climbing Cleveland Center
Thu 08:22:46 AM 42.8444 -77.0567 116° Southeast 405 466 21,700 978 Climbing Cleveland Center
Thu 08:23:16 AM 42.8258 -77.0044 116° Southeast 379 436 22,500 857 Climbing Boston Center
Thu 08:24:17 AM 42.7664 -76.8697 121° Southeast 396 456 23,000 248 Climbing Boston Center
Thu 08:25:17 AM 42.7050 -76.7297 121° Southeast 414 476 23,000  Level Boston Center
Thu 08:26:18 AM 42.6436 -76.5869 120° Southeast 429 494 23,000  Level Boston Center
Thu 08:27:16 AM 42.5797 -76.4503 122° Southeast 429 494 23,000  Level Boston Center
Thu 08:28:17 AM 42.5197 -76.3139 121° Southeast 429 494 23,000  Level Boston Center
Thu 08:29:18 AM 42.4519 -76.1606 121° Southeast 429 494 23,000  Level Boston Center
Thu 08:30:16 AM 42.3878 -76.0189 121° Southeast 429 494 23,000  Level Boston Center
Thu 08:31:16 AM 42.3253 -75.8833 122° Southeast 429 494 23,000  Level Boston Center
Thu 08:32:17 AM 42.2686 -75.7539 121° Southeast 435 501 23,000  Level Boston Center
Thu 08:33:17 AM 42.2039 -75.6158 122° Southeast 435 501 23,000  Level Boston Center
Thu 08:34:18 AM 42.1408 -75.4808 122° Southeast 440 506 23,000 -508 Level Boston Center
Thu 08:35:15 AM 42.0778 -75.3436 122° Southeast 440 506 22,000 -1,271 Descending Boston Center
Thu 08:36:16 AM 42.0247 -75.2125 119° Southeast 426 490 20,500 -1,525 Descending Boston Center
Thu 08:37:17 AM 41.9697 -75.0650 117° Southeast 412 474 18,900 -1,525 Descending Boston Center
Thu 08:38:18 AM 41.9206 -74.9400 118° Southeast 385 443 17,400 -1,008 Descending Boston Center
Thu 08:39:16 AM 41.8494 -74.8508 137° Southeast 350 403 16,900 -1,983 Descending Boston Center
Thu 08:40:16 AM 41.7589 -74.8000 157° South 350 403 13,500 -3,200 Descending Boston Center
Thu 08:41:16 AM 41.6725 -74.7469 155° Southeast 350 403 10,500 -2,975 Descending Boston Center
Thu 08:42:17 AM 41.5942 -74.6997 156° South 324 373 7,500 -2,213 Descending Boston Center
Thu 08:43:18 AM 41.5200 -74.6581 157° South 308 354 6,000 -756 Descending Boston Center
Thu 08:44:16 AM 41.4478 -74.6142 156° South 286 329 6,000  Level Boston Center
Thu 08:45:20 AM 41.3667 -74.6167 181° South 286 329 6,000 -185 Level New York TRACON
Thu 08:46:26 AM 41.2833 -74.6000 171° South 290 334 5,600 -619 Descending New York TRACON
Thu 08:47:26 AM 41.2000 -74.5667 163° South 287 330 4,700 -800 Descending New York TRACON
Thu 08:48:26 AM 41.1333 -74.5500 169° South 273 314 4,000 -650 Descending New York TRACON
Thu 08:49:26 AM 41.0500 -74.5333 171° South 272 313 3,400 -500 Descending New York TRACON
Thu 08:50:26 AM 40.9667 -74.5167 171° South 262 302 3,000 -200 Descending New York TRACON
Thu 08:51:26 AM 40.9000 -74.5000 169° South 259 298 3,000  Level New York TRACON
Thu 08:52:20 AM 40.8500 -74.4833 166° South 260 299 3,000  Level New York TRACON
Thu 08:53:20 AM 40.7667 -74.4667 171° South 262 302 3,000  Level New York TRACON
Thu 08:54:20 AM 40.7333 -74.4000 123° Southeast 264 304 3,000 -400 Level New York TRACON
Thu 08:55:20 AM 40.7500 -74.3167 75° East 216 249 2,200 -500 Descending New York TRACON
Thu 08:56:20 AM 40.7667 -74.2500 72° East 193 222 2,000 -250 Descending New York TRACON
Thu 08:57:20 AM 40.7833 -74.1833 72° East 202 232 1,700 -368 Descending New York TRACON
Thu 08:58:14 AM 40.8000 -74.1333 66° East 173 199 1,300 -421 Descending New York TRACON
Thu 08:59:14 AM 40.8167 -74.0833 66° East 131 151 900 -400 Descending New York TRACON
Thu 09:01:00 AM 40.8500 -74.0500 65° Northeast  Level FlightAware Approximate
Thu 09:08:00 AM 40.8501 -74.0608 65° Northeast  Level Estimated

Login

Don't have an account? Register now (free) for customized features, flight alerts, and more!